BAW615 LIRP-EGLL
Flight info
| Callsign | BAW615 |
|---|---|
| Flight time | N/A |
| Altitude | 38000 |
| Route | SPEZI DCT ASTIG DCT AOSTA DCT ORSUD DCT MOLUS DCT IBODI DCT GOTED DCT TRO DCT CLM DCT KOPOR DCT ABNUR DCT DIMAL DCT ALESO |
| Aircraft | A320/M-SDE3FGHIRWY/LB1 |
Departure
| Time | N/A |
|---|---|
| Airport | Pisa International Airport (LIRP) |
Arrival
| Time | 2026-04-30 18:33 |
|---|---|
| Airport | London Heathrow Airport (EGLL) |
| Time | Latitude | Longitude | Altitude | Speed | Heading |
|---|---|---|---|---|---|
| 2026-04-30 17:39 | 47.99276 | 4.50438 | 38162 ft | 454 kts | 307° |
| 2026-04-30 17:42 | 48.17686 | 4.12060 | 38185 ft | 454 kts | 306° |
| 2026-04-30 17:43 | 48.27131 | 3.93172 | 38178 ft | 452 kts | 314° |
| 2026-04-30 17:44 | 48.40172 | 3.72575 | 38166 ft | 453 kts | 315° |
| 2026-04-30 17:47 | 48.59732 | 3.41392 | 38176 ft | 457 kts | 314° |
| 2026-04-30 17:48 | 48.74946 | 3.16884 | 38192 ft | 456 kts | 314° |
| 2026-04-30 17:50 | 48.93459 | 2.93560 | 38180 ft | 454 kts | 331° |
| 2026-04-30 17:52 | 49.09889 | 2.79110 | 38183 ft | 455 kts | 332° |
| 2026-04-30 17:54 | 49.34503 | 2.57298 | 38184 ft | 455 kts | 330° |
| 2026-04-30 17:56 | 49.56452 | 2.37770 | 38196 ft | 455 kts | 332° |
| 2026-04-30 17:58 | 49.73141 | 2.23758 | 38194 ft | 456 kts | 332° |
| 2026-04-30 18:00 | 49.95339 | 2.04743 | 37452 ft | 455 kts | 332° |
| 2026-04-30 18:00 | 50.03686 | 1.97542 | 36648 ft | 458 kts | 332° |
| 2026-04-30 18:01 | 50.09236 | 1.92739 | 36131 ft | 459 kts | 332° |
| 2026-04-30 18:02 | 50.17506 | 1.85072 | 35376 ft | 462 kts | 321° |
| 2026-04-30 18:02 | 50.24438 | 1.74759 | 34154 ft | 456 kts | 315° |
| 2026-04-30 18:03 | 50.31183 | 1.64487 | 32683 ft | 446 kts | 315° |
| 2026-04-30 18:04 | 50.37744 | 1.54420 | 31262 ft | 438 kts | 315° |
| 2026-04-30 18:05 | 50.46362 | 1.41121 | 29383 ft | 428 kts | 315° |
| 2026-04-30 18:06 | 50.54547 | 1.27895 | 27664 ft | 418 kts | 312° |
| 2026-04-30 18:07 | 50.62456 | 1.14642 | 26067 ft | 411 kts | 315° |
| 2026-04-30 18:08 | 50.68538 | 1.05222 | 24825 ft | 408 kts | 315° |
| 2026-04-30 18:09 | 50.76520 | 0.92564 | 23016 ft | 403 kts | 314° |
| 2026-04-30 18:10 | 50.84299 | 0.80117 | 21299 ft | 390 kts | 314° |
| 2026-04-30 18:11 | 50.91658 | 0.68315 | 19277 ft | 365 kts | 314° |
| 2026-04-30 18:11 | 50.96889 | 0.59874 | 18152 ft | 357 kts | 313° |
| 2026-04-30 18:12 | 51.02192 | 0.51302 | 16297 ft | 368 kts | 314° |
| 2026-04-30 18:13 | 51.05796 | 0.45441 | 15201 ft | 370 kts | 313° |
| 2026-04-30 18:13 | 51.10635 | 0.37853 | 14382 ft | 353 kts | 316° |
| 2026-04-30 18:14 | 51.14665 | 0.31804 | 13642 ft | 334 kts | 316° |
| 2026-04-30 18:15 | 51.19583 | 0.24319 | 11872 ft | 319 kts | 315° |
| 2026-04-30 18:15 | 51.24316 | 0.17054 | 10142 ft | 311 kts | 315° |
| 2026-04-30 18:16 | 51.27374 | 0.12338 | 8939 ft | 304 kts | 315° |
| 2026-04-30 18:16 | 51.30393 | 0.07667 | 7809 ft | 298 kts | 314° |
| 2026-04-30 18:17 | 51.31746 | 0.05540 | 7333 ft | 293 kts | 309° |
| 2026-04-30 18:17 | 51.32728 | 0.02747 | 7175 ft | 287 kts | 282° |
| 2026-04-30 18:17 | 51.33216 | -0.03550 | 7201 ft | 288 kts | 271° |
| 2026-04-30 18:18 | 51.33399 | -0.06739 | 7180 ft | 287 kts | 271° |
| 2026-04-30 18:18 | 51.33568 | -0.09919 | 7190 ft | 286 kts | 271° |
| 2026-04-30 18:18 | 51.33725 | -0.13064 | 7128 ft | 287 kts | 271° |
| 2026-04-30 18:18 | 51.33888 | -0.16233 | 7030 ft | 286 kts | 271° |
| 2026-04-30 18:19 | 51.34042 | -0.19391 | 7008 ft | 285 kts | 271° |
| 2026-04-30 18:19 | 51.34195 | -0.22552 | 7007 ft | 285 kts | 270° |
| 2026-04-30 18:19 | 51.34353 | -0.25732 | 7007 ft | 286 kts | 271° |
| 2026-04-30 18:19 | 51.34512 | -0.28909 | 7007 ft | 286 kts | 271° |
| 2026-04-30 18:20 | 51.34671 | -0.32090 | 7010 ft | 287 kts | 271° |
| 2026-04-30 18:20 | 51.34833 | -0.35230 | 7008 ft | 287 kts | 271° |
| 2026-04-30 18:20 | 51.34993 | -0.38411 | 7008 ft | 287 kts | 271° |
| 2026-04-30 18:20 | 51.35149 | -0.41597 | 7009 ft | 286 kts | 271° |
| 2026-04-30 18:21 | 51.35302 | -0.44767 | 7007 ft | 286 kts | 271° |
| 2026-04-30 18:21 | 51.35454 | -0.47952 | 7009 ft | 286 kts | 271° |
| 2026-04-30 18:21 | 51.35603 | -0.51118 | 7009 ft | 281 kts | 271° |
| 2026-04-30 18:21 | 51.35753 | -0.54171 | 7004 ft | 269 kts | 271° |
| 2026-04-30 18:22 | 51.35899 | -0.57084 | 7004 ft | 257 kts | 271° |
| 2026-04-30 18:22 | 51.36193 | -0.62713 | 6821 ft | 252 kts | 271° |
| 2026-04-30 18:22 | 51.36340 | -0.65515 | 6528 ft | 251 kts | 271° |
| 2026-04-30 18:23 | 51.36492 | -0.68293 | 6269 ft | 250 kts | 271° |
| 2026-04-30 18:23 | 51.36644 | -0.71022 | 6030 ft | 248 kts | 271° |
| 2026-04-30 18:23 | 51.36799 | -0.73773 | 5722 ft | 247 kts | 271° |
| 2026-04-30 18:23 | 51.36958 | -0.76510 | 5462 ft | 246 kts | 271° |
| 2026-04-30 18:24 | 51.37287 | -0.81959 | 4871 ft | 245 kts | 271° |
| 2026-04-30 18:24 | 51.37454 | -0.84660 | 4529 ft | 243 kts | 271° |
| 2026-04-30 18:24 | 51.37620 | -0.87365 | 4198 ft | 244 kts | 271° |
| 2026-04-30 18:25 | 51.37780 | -0.90065 | 3998 ft | 245 kts | 272° |
| 2026-04-30 18:25 | 51.39494 | -0.94585 | 3980 ft | 242 kts | 334° |
| 2026-04-30 18:25 | 51.41041 | -0.95270 | 3989 ft | 224 kts | 357° |
| 2026-04-30 18:26 | 51.44024 | -0.95569 | 3984 ft | 211 kts | 8° |
| 2026-04-30 18:26 | 51.45341 | -0.94815 | 3983 ft | 198 kts | 47° |
| 2026-04-30 18:26 | 51.46268 | -0.93235 | 4004 ft | 192 kts | 58° |
| 2026-04-30 18:27 | 51.47488 | -0.89613 | 3997 ft | 181 kts | 90° |
| 2026-04-30 18:27 | 51.47523 | -0.87612 | 4001 ft | 179 kts | 95° |
| 2026-04-30 18:28 | 51.47552 | -0.83612 | 4000 ft | 179 kts | 96° |
| 2026-04-30 18:28 | 51.47566 | -0.81636 | 3986 ft | 180 kts | 95° |
| 2026-04-30 18:28 | 51.47593 | -0.77650 | 3627 ft | 177 kts | 95° |
| 2026-04-30 18:29 | 51.47606 | -0.75686 | 3421 ft | 176 kts | 95° |
| 2026-04-30 18:29 | 51.47641 | -0.69874 | 2740 ft | 175 kts | 94° |
| 2026-04-30 18:30 | 51.47661 | -0.66755 | 2329 ft | 156 kts | 94° |
| 2026-04-30 18:30 | 51.47682 | -0.62849 | 1875 ft | 146 kts | 92° |
| 2026-04-30 18:31 | 51.47690 | -0.61213 | 1681 ft | 147 kts | 92° |
| 2026-04-30 18:31 | 51.47706 | -0.57964 | 1280 ft | 145 kts | 92° |
| 2026-04-30 18:32 | 51.47704 | -0.54709 | 922 ft | 145 kts | 93° |
| 2026-04-30 18:32 | 51.47713 | -0.53078 | 666 ft | 148 kts | 90° |
| 2026-04-30 18:32 | 51.47736 | -0.49766 | 263 ft | 150 kts | 88° |
| 2026-04-30 18:33 | 51.47750 | -0.48080 | 117 ft | 150 kts | 89° |
| 2026-04-30 18:33 | 51.47763 | -0.45446 | 85 ft | 77 kts | 90° |
| 2026-04-30 18:33 | 51.47761 | -0.44844 | 89 ft | 41 kts | 90° |
| 2026-04-30 18:34 | 51.47709 | -0.44407 | 89 ft | 40 kts | 115° |
| 2026-04-30 18:34 | 51.47599 | -0.44337 | 87 ft | 16 kts | 271° |
| 2026-04-30 18:34 | 51.47599 | -0.44565 | 86 ft | 21 kts | 270° |
| 2026-04-30 18:35 | 51.47599 | -0.44769 | 86 ft | 17 kts | 270° |
| 2026-04-30 18:35 | 51.47598 | -0.44978 | 86 ft | 20 kts | 269° |
| 2026-04-30 18:35 | 51.47597 | -0.45213 | 86 ft | 22 kts | 270° |
| 2026-04-30 18:36 | 51.47596 | -0.45769 | 90 ft | 28 kts | 270° |
| 2026-04-30 18:36 | 51.47595 | -0.46023 | 87 ft | 23 kts | 270° |
| 2026-04-30 18:36 | 51.47592 | -0.46587 | 86 ft | 28 kts | 269° |
| 2026-04-30 18:37 | 51.47583 | -0.46894 | 86 ft | 28 kts | 267° |
| 2026-04-30 18:37 | 51.47582 | -0.47219 | 90 ft | 31 kts | 270° |
| 2026-04-30 18:37 | 51.47582 | -0.47452 | 90 ft | 32 kts | 270° |
| 2026-04-30 18:37 | 51.47580 | -0.47817 | 88 ft | 28 kts | 269° |
| 2026-04-30 18:38 | 51.47579 | -0.48085 | 88 ft | 25 kts | 270° |
| 2026-04-30 18:38 | 51.47578 | -0.48364 | 88 ft | 23 kts | 269° |
| 2026-04-30 18:38 | 51.47506 | -0.48476 | 86 ft | 18 kts | 180° |
| 2026-04-30 18:38 | 51.47369 | -0.48476 | 86 ft | 21 kts | 179° |
| 2026-04-30 18:39 | 51.47216 | -0.48474 | 86 ft | 21 kts | 180° |
| 2026-04-30 18:39 | 51.47147 | -0.48474 | 86 ft | 1 kts | 180° |
| 2026-04-30 18:39 | 51.47133 | -0.48473 | 86 ft | 4 kts | 180° |
| 2026-04-30 18:39 | 51.47099 | -0.48473 | 86 ft | 5 kts | 179° |
| 2026-04-30 18:40 | 51.47088 | -0.48496 | 89 ft | 3 kts | 266° |
| 2026-04-30 18:40 | 51.47088 | -0.48553 | 86 ft | 7 kts | 269° |
| 2026-04-30 18:40 | 51.47087 | -0.48585 | 86 ft | 0 kts | 270° |